sensor_id;sensor_type;location;lat;lon;timestamp;P1;durP1;ratioP1;P2;durP2;ratioP2
26337;SDS011;14050;50.950;4.460;2022-12-18T00:04:41;57.40;;;37.13;;
26337;SDS011;14050;50.950;4.460;2022-12-18T00:09:42;56.20;;;36.70;;
26337;SDS011;14050;50.950;4.460;2022-12-18T00:14:42;56.97;;;36.95;;
26337;SDS011;14050;50.950;4.460;2022-12-18T00:19:42;60.37;;;38.27;;
26337;SDS011;14050;50.950;4.460;2022-12-18T00:24:43;56.85;;;36.45;;
26337;SDS011;14050;50.950;4.460;2022-12-18T00:29:43;63.17;;;40.80;;
26337;SDS011;14050;50.950;4.460;2022-12-18T00:34:43;56.00;;;36.72;;
26337;SDS011;14050;50.950;4.460;2022-12-18T00:39:43;57.85;;;37.50;;
26337;SDS011;14050;50.950;4.460;2022-12-18T00:44:44;61.60;;;41.47;;
26337;SDS011;14050;50.950;4.460;2022-12-18T00:49:44;62.92;;;39.72;;
26337;SDS011;14050;50.950;4.460;2022-12-18T00:54:44;65.68;;;45.72;;
26337;SDS011;14050;50.950;4.460;2022-12-18T00:59:44;66.90;;;44.63;;
26337;SDS011;14050;50.950;4.460;2022-12-18T01:04:45;59.75;;;40.83;;
26337;SDS011;14050;50.950;4.460;2022-12-18T01:09:45;60.97;;;41.97;;
26337;SDS011;14050;50.950;4.460;2022-12-18T01:14:45;60.53;;;40.80;;
26337;SDS011;14050;50.950;4.460;2022-12-18T01:19:45;61.77;;;42.13;;
26337;SDS011;14050;50.950;4.460;2022-12-18T01:24:46;54.58;;;36.28;;
26337;SDS011;14050;50.950;4.460;2022-12-18T01:29:46;62.13;;;40.75;;
26337;SDS011;14050;50.950;4.460;2022-12-18T01:34:46;65.50;;;43.78;;
26337;SDS011;14050;50.950;4.460;2022-12-18T01:39:47;62.38;;;42.90;;
26337;SDS011;14050;50.950;4.460;2022-12-18T01:49:57;60.75;;;41.85;;
26337;SDS011;14050;50.950;4.460;2022-12-18T01:54:58;62.40;;;41.60;;
26337;SDS011;14050;50.950;4.460;2022-12-18T02:00:00;62.15;;;42.20;;
26337;SDS011;14050;50.950;4.460;2022-12-18T02:05:02;65.47;;;45.65;;
26337;SDS011;14050;50.950;4.460;2022-12-18T02:15:31;70.13;;;46.58;;
26337;SDS011;14050;50.950;4.460;2022-12-18T02:21:08;66.35;;;44.70;;
26337;SDS011;14050;50.950;4.460;2022-12-18T02:30:56;68.07;;;45.92;;
26337;SDS011;14050;50.950;4.460;2022-12-18T02:35:57;69.80;;;46.42;;
26337;SDS011;14050;50.950;4.460;2022-12-18T02:40:58;68.45;;;47.80;;
26337;SDS011;14050;50.950;4.460;2022-12-18T02:46:00;69.18;;;47.45;;
26337;SDS011;14050;50.950;4.460;2022-12-18T02:56:38;68.68;;;46.30;;
26337;SDS011;14050;50.950;4.460;2022-12-18T03:01:43;67.82;;;44.58;;
26337;SDS011;14050;50.950;4.460;2022-12-18T03:06:49;65.60;;;43.17;;
26337;SDS011;14050;50.950;4.460;2022-12-18T03:11:55;65.57;;;43.08;;
26337;SDS011;14050;50.950;4.460;2022-12-18T03:17:15;64.05;;;46.17;;
26337;SDS011;14050;50.950;4.460;2022-12-18T03:22:16;63.72;;;42.20;;
26337;SDS011;14050;50.950;4.460;2022-12-18T03:27:18;69.22;;;45.40;;
26337;SDS011;14050;50.950;4.460;2022-12-18T03:32:21;68.28;;;44.42;;
26337;SDS011;14050;50.950;4.460;2022-12-18T03:37:23;69.60;;;43.58;;
26337;SDS011;14050;50.950;4.460;2022-12-18T03:42:44;60.90;;;42.95;;
26337;SDS011;14050;50.950;4.460;2022-12-18T03:58:11;62.80;;;43.50;;
26337;SDS011;14050;50.950;4.460;2022-12-18T04:03:13;58.63;;;39.72;;
26337;SDS011;14050;50.950;4.460;2022-12-18T04:08:13;57.92;;;41.60;;
26337;SDS011;14050;50.950;4.460;2022-12-18T04:13:21;63.45;;;42.72;;
26337;SDS011;14050;50.950;4.460;2022-12-18T04:18:21;61.40;;;40.90;;
26337;SDS011;14050;50.950;4.460;2022-12-18T04:23:21;60.70;;;38.20;;
26337;SDS011;14050;50.950;4.460;2022-12-18T04:28:22;63.40;;;43.27;;
26337;SDS011;14050;50.950;4.460;2022-12-18T04:33:22;58.88;;;39.05;;
26337;SDS011;14050;50.950;4.460;2022-12-18T04:38:22;59.08;;;39.28;;
26337;SDS011;14050;50.950;4.460;2022-12-18T04:43:22;58.93;;;40.13;;
26337;SDS011;14050;50.950;4.460;2022-12-18T04:48:23;61.35;;;40.33;;
26337;SDS011;14050;50.950;4.460;2022-12-18T04:53:23;59.28;;;39.88;;
26337;SDS011;14050;50.950;4.460;2022-12-18T04:58:23;58.83;;;40.27;;
26337;SDS011;14050;50.950;4.460;2022-12-18T05:03:24;58.95;;;39.95;;
26337;SDS011;14050;50.950;4.460;2022-12-18T05:08:24;60.28;;;40.17;;
26337;SDS011;14050;50.950;4.460;2022-12-18T05:13:24;56.63;;;39.30;;
26337;SDS011;14050;50.950;4.460;2022-12-18T05:18:25;58.90;;;40.28;;
26337;SDS011;14050;50.950;4.460;2022-12-18T05:23:26;54.45;;;38.47;;
26337;SDS011;14050;50.950;4.460;2022-12-18T05:28:27;62.30;;;42.78;;
26337;SDS011;14050;50.950;4.460;2022-12-18T05:33:28;63.50;;;40.85;;
26337;SDS011;14050;50.950;4.460;2022-12-18T05:38:30;59.50;;;40.42;;
26337;SDS011;14050;50.950;4.460;2022-12-18T05:43:31;67.35;;;41.78;;
26337;SDS011;14050;50.950;4.460;2022-12-18T05:48:31;72.05;;;46.20;;
26337;SDS011;14050;50.950;4.460;2022-12-18T05:53:31;70.43;;;43.03;;
26337;SDS011;14050;50.950;4.460;2022-12-18T05:58:32;62.00;;;43.03;;
26337;SDS011;14050;50.950;4.460;2022-12-18T06:03:32;63.05;;;42.25;;
26337;SDS011;14050;50.950;4.460;2022-12-18T06:08:32;61.90;;;40.63;;
26337;SDS011;14050;50.950;4.460;2022-12-18T06:13:32;58.30;;;40.22;;
26337;SDS011;14050;50.950;4.460;2022-12-18T06:18:33;58.80;;;38.58;;
26337;SDS011;14050;50.950;4.460;2022-12-18T06:23:33;59.25;;;41.08;;
26337;SDS011;14050;50.950;4.460;2022-12-18T06:28:34;58.25;;;40.53;;
26337;SDS011;14050;50.950;4.460;2022-12-18T06:33:35;56.42;;;38.72;;
26337;SDS011;14050;50.950;4.460;2022-12-18T06:38:36;57.92;;;40.80;;
26337;SDS011;14050;50.950;4.460;2022-12-18T06:43:36;58.03;;;37.92;;
26337;SDS011;14050;50.950;4.460;2022-12-18T06:48:37;55.45;;;39.10;;
26337;SDS011;14050;50.950;4.460;2022-12-18T06:53:37;54.40;;;37.13;;
26337;SDS011;14050;50.950;4.460;2022-12-18T06:58:38;60.33;;;38.53;;
26337;SDS011;14050;50.950;4.460;2022-12-18T07:03:39;57.10;;;36.33;;
26337;SDS011;14050;50.950;4.460;2022-12-18T07:08:40;57.50;;;38.85;;
26337;SDS011;14050;50.950;4.460;2022-12-18T07:13:40;61.15;;;39.38;;
26337;SDS011;14050;50.950;4.460;2022-12-18T07:18:41;58.20;;;39.60;;
26337;SDS011;14050;50.950;4.460;2022-12-18T07:23:41;58.53;;;37.27;;
26337;SDS011;14050;50.950;4.460;2022-12-18T07:28:41;56.85;;;37.60;;
26337;SDS011;14050;50.950;4.460;2022-12-18T07:33:42;54.67;;;38.53;;
26337;SDS011;14050;50.950;4.460;2022-12-18T07:38:42;55.58;;;37.30;;
26337;SDS011;14050;50.950;4.460;2022-12-18T07:43:43;56.45;;;40.92;;
26337;SDS011;14050;50.950;4.460;2022-12-18T07:48:43;62.53;;;39.80;;
26337;SDS011;14050;50.950;4.460;2022-12-18T07:53:44;70.57;;;42.85;;
26337;SDS011;14050;50.950;4.460;2022-12-18T07:58:47;69.72;;;42.45;;
26337;SDS011;14050;50.950;4.460;2022-12-18T08:03:47;63.50;;;42.65;;
26337;SDS011;14050;50.950;4.460;2022-12-18T08:08:48;64.07;;;40.50;;
26337;SDS011;14050;50.950;4.460;2022-12-18T08:13:48;55.30;;;36.93;;
26337;SDS011;14050;50.950;4.460;2022-12-18T08:18:48;56.50;;;40.33;;
26337;SDS011;14050;50.950;4.460;2022-12-18T08:23:49;58.45;;;38.45;;
26337;SDS011;14050;50.950;4.460;2022-12-18T08:28:50;57.05;;;35.63;;
26337;SDS011;14050;50.950;4.460;2022-12-18T08:33:51;55.92;;;36.40;;
26337;SDS011;14050;50.950;4.460;2022-12-18T08:38:52;54.05;;;35.90;;
26337;SDS011;14050;50.950;4.460;2022-12-18T08:43:52;67.47;;;44.60;;
26337;SDS011;14050;50.950;4.460;2022-12-18T08:49:11;83.93;;;49.47;;
26337;SDS011;14050;50.950;4.460;2022-12-18T08:54:12;50.35;;;35.30;;
26337;SDS011;14050;50.950;4.460;2022-12-18T08:59:13;46.13;;;33.42;;
26337;SDS011;14050;50.950;4.460;2022-12-18T09:04:14;40.55;;;27.23;;
26337;SDS011;14050;50.950;4.460;2022-12-18T09:09:14;40.23;;;25.10;;
26337;SDS011;14050;50.950;4.460;2022-12-18T09:14:15;39.20;;;25.73;;
26337;SDS011;14050;50.950;4.460;2022-12-18T09:19:15;32.30;;;22.40;;
26337;SDS011;14050;50.950;4.460;2022-12-18T09:24:15;32.65;;;22.13;;
26337;SDS011;14050;50.950;4.460;2022-12-18T09:29:16;31.80;;;21.00;;
26337;SDS011;14050;50.950;4.460;2022-12-18T09:34:16;32.47;;;21.05;;
26337;SDS011;14050;50.950;4.460;2022-12-18T09:39:16;34.13;;;22.47;;
26337;SDS011;14050;50.950;4.460;2022-12-18T09:49:21;41.22;;;27.38;;
26337;SDS011;14050;50.950;4.460;2022-12-18T09:54:26;35.80;;;24.60;;
26337;SDS011;14050;50.950;4.460;2022-12-18T09:59:31;71.25;;;45.75;;
26337;SDS011;14050;50.950;4.460;2022-12-18T10:04:32;47.25;;;27.52;;
26337;SDS011;14050;50.950;4.460;2022-12-18T10:09:37;63.20;;;41.75;;
26337;SDS011;14050;50.950;4.460;2022-12-18T10:24:46;37.40;;;25.92;;
26337;SDS011;14050;50.950;4.460;2022-12-18T10:29:48;32.95;;;23.15;;
26337;SDS011;14050;50.950;4.460;2022-12-18T10:34:49;40.80;;;26.65;;
26337;SDS011;14050;50.950;4.460;2022-12-18T10:45:29;35.75;;;25.63;;
26337;SDS011;14050;50.950;4.460;2022-12-18T10:50:30;37.03;;;26.25;;
26337;SDS011;14050;50.950;4.460;2022-12-18T10:55:32;33.20;;;22.10;;
26337;SDS011;14050;50.950;4.460;2022-12-18T11:00:33;33.15;;;22.02;;
26337;SDS011;14050;50.950;4.460;2022-12-18T11:05:36;34.83;;;22.30;;
26337;SDS011;14050;50.950;4.460;2022-12-18T11:10:37;35.97;;;23.42;;
